sensor_id;sensor_type;location;lat;lon;timestamp;P1;durP1;ratioP1;P2;durP2;ratioP2
49556;SDS011;35462;45.048;7.666;2022-12-10T00:06:27;18.73;;;10.05;;
49556;SDS011;35462;45.048;7.666;2022-12-10T00:21:45;13.90;;;10.30;;
49556;SDS011;35462;45.048;7.666;2022-12-10T00:37:01;16.58;;;10.70;;
49556;SDS011;35462;45.048;7.666;2022-12-10T00:52:17;15.27;;;9.73;;
49556;SDS011;35462;45.048;7.666;2022-12-10T01:07:32;15.23;;;9.98;;
49556;SDS011;35462;45.048;7.666;2022-12-10T01:22:48;19.23;;;11.80;;
49556;SDS011;35462;45.048;7.666;2022-12-10T01:38:05;16.65;;;11.10;;
49556;SDS011;35462;45.048;7.666;2022-12-10T01:53:20;18.17;;;11.00;;
49556;SDS011;35462;45.048;7.666;2022-12-10T02:08:39;16.75;;;10.57;;
49556;SDS011;35462;45.048;7.666;2022-12-10T02:24:03;17.92;;;11.65;;
49556;SDS011;35462;45.048;7.666;2022-12-10T02:39:23;18.60;;;12.13;;
49556;SDS011;35462;45.048;7.666;2022-12-10T02:54:47;17.98;;;11.32;;
49556;SDS011;35462;45.048;7.666;2022-12-10T03:25:32;20.58;;;12.25;;
49556;SDS011;35462;45.048;7.666;2022-12-10T03:40:49;21.15;;;12.85;;
49556;SDS011;35462;45.048;7.666;2022-12-10T03:56:05;20.80;;;12.85;;
49556;SDS011;35462;45.048;7.666;2022-12-10T04:11:21;21.30;;;11.65;;
49556;SDS011;35462;45.048;7.666;2022-12-10T04:26:36;21.52;;;14.18;;
49556;SDS011;35462;45.048;7.666;2022-12-10T04:42:07;21.77;;;13.07;;
49556;SDS011;35462;45.048;7.666;2022-12-10T04:57:23;20.40;;;12.50;;
49556;SDS011;35462;45.048;7.666;2022-12-10T05:12:39;19.17;;;11.27;;
49556;SDS011;35462;45.048;7.666;2022-12-10T05:27:54;22.23;;;13.10;;
49556;SDS011;35462;45.048;7.666;2022-12-10T05:43:10;20.10;;;12.43;;
49556;SDS011;35462;45.048;7.666;2022-12-10T05:58:27;22.75;;;13.32;;
49556;SDS011;35462;45.048;7.666;2022-12-10T06:13:44;16.80;;;11.68;;
49556;SDS011;35462;45.048;7.666;2022-12-10T06:29:00;17.20;;;11.73;;
49556;SDS011;35462;45.048;7.666;2022-12-10T06:44:15;22.98;;;13.30;;
49556;SDS011;35462;45.048;7.666;2022-12-10T06:59:32;21.08;;;13.50;;
49556;SDS011;35462;45.048;7.666;2022-12-10T07:14:48;23.80;;;15.57;;
49556;SDS011;35462;45.048;7.666;2022-12-10T07:30:05;24.23;;;14.45;;
49556;SDS011;35462;45.048;7.666;2022-12-10T07:45:21;21.45;;;13.45;;
49556;SDS011;35462;45.048;7.666;2022-12-10T08:00:37;21.58;;;15.05;;
49556;SDS011;35462;45.048;7.666;2022-12-10T08:15:53;22.85;;;14.57;;
49556;SDS011;35462;45.048;7.666;2022-12-10T08:31:10;27.52;;;15.93;;
49556;SDS011;35462;45.048;7.666;2022-12-10T08:46:27;27.83;;;16.35;;
49556;SDS011;35462;45.048;7.666;2022-12-10T09:01:44;27.60;;;15.27;;
49556;SDS011;35462;45.048;7.666;2022-12-10T09:17:02;24.63;;;16.15;;
49556;SDS011;35462;45.048;7.666;2022-12-10T09:32:19;26.80;;;15.07;;
49556;SDS011;35462;45.048;7.666;2022-12-10T09:47:36;21.52;;;14.07;;
49556;SDS011;35462;45.048;7.666;2022-12-10T10:03:00;25.35;;;13.90;;
49556;SDS011;35462;45.048;7.666;2022-12-10T10:18:21;22.85;;;13.35;;
49556;SDS011;35462;45.048;7.666;2022-12-10T10:33:47;27.63;;;15.65;;
49556;SDS011;35462;45.048;7.666;2022-12-10T10:49:14;22.92;;;14.30;;
49556;SDS011;35462;45.048;7.666;2022-12-10T11:04:48;21.60;;;12.77;;
49556;SDS011;35462;45.048;7.666;2022-12-10T11:50:52;19.85;;;11.32;;
49556;SDS011;35462;45.048;7.666;2022-12-10T12:06:25;21.38;;;13.02;;
49556;SDS011;35462;45.048;7.666;2022-12-10T12:21:58;26.70;;;14.85;;
49556;SDS011;35462;45.048;7.666;2022-12-10T12:37:18;25.48;;;15.38;;
49556;SDS011;35462;45.048;7.666;2022-12-10T12:52:40;18.95;;;11.80;;
49556;SDS011;35462;45.048;7.666;2022-12-10T13:23:33;19.67;;;11.73;;
49556;SDS011;35462;45.048;7.666;2022-12-10T13:54:22;18.90;;;11.65;;
49556;SDS011;35462;45.048;7.666;2022-12-10T14:25:12;16.92;;;10.80;;
49556;SDS011;35462;45.048;7.666;2022-12-10T14:40:30;15.13;;;9.73;;
49556;SDS011;35462;45.048;7.666;2022-12-10T14:55:53;16.55;;;10.15;;
49556;SDS011;35462;45.048;7.666;2022-12-10T15:11:17;16.58;;;10.30;;
49556;SDS011;35462;45.048;7.666;2022-12-10T15:26:35;18.55;;;11.35;;
49556;SDS011;35462;45.048;7.666;2022-12-10T15:41:51;17.75;;;12.10;;
49556;SDS011;35462;45.048;7.666;2022-12-10T15:57:13;19.25;;;12.88;;
49556;SDS011;35462;45.048;7.666;2022-12-10T16:12:31;18.88;;;13.07;;
49556;SDS011;35462;45.048;7.666;2022-12-10T16:27:50;20.85;;;13.27;;
49556;SDS011;35462;45.048;7.666;2022-12-10T16:43:08;20.63;;;12.27;;
49556;SDS011;35462;45.048;7.666;2022-12-10T16:58:29;20.25;;;11.88;;
49556;SDS011;35462;45.048;7.666;2022-12-10T17:13:46;20.55;;;11.40;;
49556;SDS011;35462;45.048;7.666;2022-12-10T17:29:04;18.85;;;10.07;;
49556;SDS011;35462;45.048;7.666;2022-12-10T17:44:27;21.65;;;10.05;;
49556;SDS011;35462;45.048;7.666;2022-12-10T17:59:43;20.30;;;9.68;;
49556;SDS011;35462;45.048;7.666;2022-12-10T18:14:59;23.42;;;12.48;;
49556;SDS011;35462;45.048;7.666;2022-12-10T18:30:15;19.52;;;10.88;;
49556;SDS011;35462;45.048;7.666;2022-12-10T18:45:33;20.20;;;11.82;;
49556;SDS011;35462;45.048;7.666;2022-12-10T19:00:49;22.35;;;13.05;;
49556;SDS011;35462;45.048;7.666;2022-12-10T19:16:09;21.17;;;12.57;;
49556;SDS011;35462;45.048;7.666;2022-12-10T19:31:27;15.98;;;11.15;;
49556;SDS011;35462;45.048;7.666;2022-12-10T19:46:43;15.45;;;10.50;;
49556;SDS011;35462;45.048;7.666;2022-12-10T20:01:59;43.55;;;11.95;;
49556;SDS011;35462;45.048;7.666;2022-12-10T20:17:15;18.05;;;11.15;;
49556;SDS011;35462;45.048;7.666;2022-12-10T20:32:34;23.73;;;13.07;;
49556;SDS011;35462;45.048;7.666;2022-12-10T20:47:50;26.95;;;12.48;;
49556;SDS011;35462;45.048;7.666;2022-12-10T21:03:06;22.08;;;13.00;;
49556;SDS011;35462;45.048;7.666;2022-12-10T21:18:22;18.60;;;10.43;;
49556;SDS011;35462;45.048;7.666;2022-12-10T21:33:38;20.23;;;11.90;;
49556;SDS011;35462;45.048;7.666;2022-12-10T21:48:54;22.70;;;11.30;;
49556;SDS011;35462;45.048;7.666;2022-12-10T22:04:09;15.60;;;10.13;;
49556;SDS011;35462;45.048;7.666;2022-12-10T22:19:27;16.23;;;11.30;;
49556;SDS011;35462;45.048;7.666;2022-12-10T22:34:42;19.75;;;11.63;;
49556;SDS011;35462;45.048;7.666;2022-12-10T22:49:59;15.48;;;10.35;;
49556;SDS011;35462;45.048;7.666;2022-12-10T23:05:14;14.32;;;9.90;;
49556;SDS011;35462;45.048;7.666;2022-12-10T23:20:30;16.55;;;10.75;;
49556;SDS011;35462;45.048;7.666;2022-12-10T23:35:47;13.38;;;9.38;;
49556;SDS011;35462;45.048;7.666;2022-12-10T23:51:03;14.15;;;10.07;;
